sensor_id;sensor_type;location;lat;lon;timestamp;temperature;humidity
60473;DHT22;46318;52.716;6.444;2024-01-10T00:02:04;-4.70;90.50
60473;DHT22;46318;52.716;6.444;2024-01-10T00:04:30;-4.60;90.60
60473;DHT22;46318;52.716;6.444;2024-01-10T00:06:56;-4.70;90.40
60473;DHT22;46318;52.716;6.444;2024-01-10T00:09:21;-4.70;90.50
60473;DHT22;46318;52.716;6.444;2024-01-10T00:11:48;-4.70;90.40
60473;DHT22;46318;52.716;6.444;2024-01-10T00:14:14;-4.70;90.40
60473;DHT22;46318;52.716;6.444;2024-01-10T00:16:40;-4.70;90.50
60473;DHT22;46318;52.716;6.444;2024-01-10T00:19:05;-4.70;90.50
60473;DHT22;46318;52.716;6.444;2024-01-10T00:21:31;-4.70;90.40
60473;DHT22;46318;52.716;6.444;2024-01-10T00:23:59;-4.70;90.50
60473;DHT22;46318;52.716;6.444;2024-01-10T00:26:25;-4.70;90.50
60473;DHT22;46318;52.716;6.444;2024-01-10T00:28:51;-4.70;90.40
60473;DHT22;46318;52.716;6.444;2024-01-10T00:31:16;-4.70;90.50
60473;DHT22;46318;52.716;6.444;2024-01-10T00:33:42;-4.70;90.50
60473;DHT22;46318;52.716;6.444;2024-01-10T00:36:08;-4.70;90.50
60473;DHT22;46318;52.716;6.444;2024-01-10T00:38:34;-4.70;90.50
60473;DHT22;46318;52.716;6.444;2024-01-10T00:41:02;-4.80;90.60
60473;DHT22;46318;52.716;6.444;2024-01-10T00:43:28;-4.80;90.60
60473;DHT22;46318;52.716;6.444;2024-01-10T00:45:54;-4.80;90.70
60473;DHT22;46318;52.716;6.444;2024-01-10T00:48:19;-4.80;90.60
60473;DHT22;46318;52.716;6.444;2024-01-10T00:50:45;-4.80;90.60
60473;DHT22;46318;52.716;6.444;2024-01-10T00:53:11;-4.80;90.60
60473;DHT22;46318;52.716;6.444;2024-01-10T00:55:37;-4.80;90.70
60473;DHT22;46318;52.716;6.444;2024-01-10T00:58:03;-4.80;90.60
60473;DHT22;46318;52.716;6.444;2024-01-10T01:00:33;-4.80;90.70
60473;DHT22;46318;52.716;6.444;2024-01-10T01:02:59;-4.80;90.80
60473;DHT22;46318;52.716;6.444;2024-01-10T01:05:30;-4.80;90.80
60473;DHT22;46318;52.716;6.444;2024-01-10T01:07:56;-4.80;90.80
60473;DHT22;46318;52.716;6.444;2024-01-10T01:10:21;-4.90;90.90
60473;DHT22;46318;52.716;6.444;2024-01-10T01:12:47;-4.90;90.80
60473;DHT22;46318;52.716;6.444;2024-01-10T01:15:16;-4.80;90.80
60473;DHT22;46318;52.716;6.444;2024-01-10T01:17:44;-4.90;90.70
60473;DHT22;46318;52.716;6.444;2024-01-10T01:20:09;-4.90;90.60
60473;DHT22;46318;52.716;6.444;2024-01-10T01:22:37;-4.80;90.50
60473;DHT22;46318;52.716;6.444;2024-01-10T01:25:03;-4.90;90.40
60473;DHT22;46318;52.716;6.444;2024-01-10T01:27:29;-4.90;90.30
60473;DHT22;46318;52.716;6.444;2024-01-10T01:29:57;-4.90;90.20
60473;DHT22;46318;52.716;6.444;2024-01-10T01:32:25;-4.90;90.10
60473;DHT22;46318;52.716;6.444;2024-01-10T01:34:54;-4.90;90.10
60473;DHT22;46318;52.716;6.444;2024-01-10T01:37:28;-4.90;90.00
60473;DHT22;46318;52.716;6.444;2024-01-10T01:39:54;-4.90;89.90
60473;DHT22;46318;52.716;6.444;2024-01-10T01:42:28;-4.90;89.90
60473;DHT22;46318;52.716;6.444;2024-01-10T01:44:54;-4.90;89.90
60473;DHT22;46318;52.716;6.444;2024-01-10T01:47:32;-4.90;89.80
60473;DHT22;46318;52.716;6.444;2024-01-10T01:49:58;-4.90;89.80
60473;DHT22;46318;52.716;6.444;2024-01-10T01:52:25;-4.90;89.90
60473;DHT22;46318;52.716;6.444;2024-01-10T01:55:01;-5.00;89.90
60473;DHT22;46318;52.716;6.444;2024-01-10T01:57:32;-5.00;89.80
60473;DHT22;46318;52.716;6.444;2024-01-10T02:00:01;-5.00;89.80
60473;DHT22;46318;52.716;6.444;2024-01-10T02:02:30;-5.00;89.80
60473;DHT22;46318;52.716;6.444;2024-01-10T02:05:12;-5.00;89.80
60473;DHT22;46318;52.716;6.444;2024-01-10T02:07:40;-5.00;89.90
60473;DHT22;46318;52.716;6.444;2024-01-10T02:10:08;-5.00;89.80
60473;DHT22;46318;52.716;6.444;2024-01-10T02:12:34;-5.00;89.80
60473;DHT22;46318;52.716;6.444;2024-01-10T02:15:05;-5.00;89.80
60473;DHT22;46318;52.716;6.444;2024-01-10T02:17:36;-5.00;89.70
60473;DHT22;46318;52.716;6.444;2024-01-10T02:20:34;-5.00;89.60
60473;DHT22;46318;52.716;6.444;2024-01-10T02:23:09;-5.00;89.40
60473;DHT22;46318;52.716;6.444;2024-01-10T02:25:35;-5.00;89.20
60473;DHT22;46318;52.716;6.444;2024-01-10T02:28:13;-5.00;89.00
60473;DHT22;46318;52.716;6.444;2024-01-10T02:30:39;-5.10;89.00
60473;DHT22;46318;52.716;6.444;2024-01-10T02:33:31;-5.00;88.80
60473;DHT22;46318;52.716;6.444;2024-01-10T02:36:07;-5.00;88.50
60473;DHT22;46318;52.716;6.444;2024-01-10T02:38:41;-5.10;88.50
60473;DHT22;46318;52.716;6.444;2024-01-10T02:41:22;-5.10;88.40
60473;DHT22;46318;52.716;6.444;2024-01-10T02:44:03;-5.00;88.40
60473;DHT22;46318;52.716;6.444;2024-01-10T02:46:39;-5.10;88.20
60473;DHT22;46318;52.716;6.444;2024-01-10T02:49:09;-5.10;88.10
60473;DHT22;46318;52.716;6.444;2024-01-10T02:51:46;-5.10;88.10
60473;DHT22;46318;52.716;6.444;2024-01-10T02:54:16;-5.10;88.10
60473;DHT22;46318;52.716;6.444;2024-01-10T02:57:00;-5.10;88.10
60473;DHT22;46318;52.716;6.444;2024-01-10T02:59:33;-5.10;88.10
60473;DHT22;46318;52.716;6.444;2024-01-10T03:02:12;-5.10;88.00
60473;DHT22;46318;52.716;6.444;2024-01-10T03:05:00;-5.10;87.90
60473;DHT22;46318;52.716;6.444;2024-01-10T03:07:51;-5.10;87.90
60473;DHT22;46318;52.716;6.444;2024-01-10T03:10:34;-5.10;87.90
60473;DHT22;46318;52.716;6.444;2024-01-10T03:13:26;-5.10;87.90
60473;DHT22;46318;52.716;6.444;2024-01-10T03:16:22;-5.10;87.60
60473;DHT22;46318;52.716;6.444;2024-01-10T03:22:38;-5.10;87.50
60473;DHT22;46318;52.716;6.444;2024-01-10T03:25:31;-5.10;87.60
60473;DHT22;46318;52.716;6.444;2024-01-10T03:28:18;-5.20;87.50
60473;DHT22;46318;52.716;6.444;2024-01-10T03:30:54;-5.20;87.60
60473;DHT22;46318;52.716;6.444;2024-01-10T03:33:42;-5.20;87.70
60473;DHT22;46318;52.716;6.444;2024-01-10T03:36:17;-5.20;87.70
60473;DHT22;46318;52.716;6.444;2024-01-10T03:38:59;-5.20;87.70
60473;DHT22;46318;52.716;6.444;2024-01-10T03:41:35;-5.20;87.80
60473;DHT22;46318;52.716;6.444;2024-01-10T03:44:12;-5.20;87.80
60473;DHT22;46318;52.716;6.444;2024-01-10T03:47:26;-5.20;87.90
60473;DHT22;46318;52.716;6.444;2024-01-10T03:50:35;-5.20;88.00
60473;DHT22;46318;52.716;6.444;2024-01-10T03:53:24;-5.20;88.20
60473;DHT22;46318;52.716;6.444;2024-01-10T04:00:13;-5.30;88.30
60473;DHT22;46318;52.716;6.444;2024-01-10T04:03:27;-5.30;88.40
60473;DHT22;46318;52.716;6.444;2024-01-10T04:16:10;-5.30;88.50
60473;DHT22;46318;52.716;6.444;2024-01-10T04:19:23;-5.30;88.60
60473;DHT22;46318;52.716;6.444;2024-01-10T04:22:37;-5.30;88.50
60473;DHT22;46318;52.716;6.444;2024-01-10T04:26:00;-5.30;88.40
60473;DHT22;46318;52.716;6.444;2024-01-10T04:39:45;-5.30;88.10
60473;DHT22;46318;52.716;6.444;2024-01-10T04:43:30;-5.30;87.90
60473;DHT22;46318;52.716;6.444;2024-01-10T04:46:58;-5.30;87.60
60473;DHT22;46318;52.716;6.444;2024-01-10T04:53:42;-5.30;87.00
60473;DHT22;46318;52.716;6.444;2024-01-10T04:56:12;-5.30;86.70
60473;DHT22;46318;52.716;6.444;2024-01-10T04:58:48;-5.30;86.50
60473;DHT22;46318;52.716;6.444;2024-01-10T05:01:21;-5.30;86.50
60473;DHT22;46318;52.716;6.444;2024-01-10T05:03:56;-5.30;86.40
60473;DHT22;46318;52.716;6.444;2024-01-10T05:06:45;-5.30;86.50
60473;DHT22;46318;52.716;6.444;2024-01-10T05:09:11;-5.30;86.50
60473;DHT22;46318;52.716;6.444;2024-01-10T05:11:37;-5.30;86.50
60473;DHT22;46318;52.716;6.444;2024-01-10T05:14:16;-5.30;86.40
60473;DHT22;46318;52.716;6.444;2024-01-10T05:16:45;-5.30;86.50
60473;DHT22;46318;52.716;6.444;2024-01-10T05:19:21;-5.30;86.30
60473;DHT22;46318;52.716;6.444;2024-01-10T05:22:11;-5.30;86.20
60473;DHT22;46318;52.716;6.444;2024-01-10T05:24:46;-5.30;86.10
60473;DHT22;46318;52.716;6.444;2024-01-10T05:27:15;-5.30;85.90
60473;DHT22;46318;52.716;6.444;2024-01-10T05:29:48;-5.30;85.80
60473;DHT22;46318;52.716;6.444;2024-01-10T05:32:40;-5.30;85.30
60473;DHT22;46318;52.716;6.444;2024-01-10T05:35:53;-5.30;85.30
60473;DHT22;46318;52.716;6.444;2024-01-10T05:38:51;-5.30;85.30
60473;DHT22;46318;52.716;6.444;2024-01-10T05:42:17;-5.30;85.50
60473;DHT22;46318;52.716;6.444;2024-01-10T05:45:00;-5.30;85.70
60473;DHT22;46318;52.716;6.444;2024-01-10T05:51:32;-5.30;85.80
60473;DHT22;46318;52.716;6.444;2024-01-10T05:54:27;-5.30;85.90
60473;DHT22;46318;52.716;6.444;2024-01-10T05:57:08;-5.30;86.00
60473;DHT22;46318;52.716;6.444;2024-01-10T05:59:56;-5.30;86.30
60473;DHT22;46318;52.716;6.444;2024-01-10T06:02:58;-5.40;86.50
60473;DHT22;46318;52.716;6.444;2024-01-10T06:05:42;-5.40;86.60
60473;DHT22;46318;52.716;6.444;2024-01-10T06:08:15;-5.40;86.60
60473;DHT22;46318;52.716;6.444;2024-01-10T06:11:06;-5.40;86.80
60473;DHT22;46318;52.716;6.444;2024-01-10T06:16:43;-5.40;87.10
60473;DHT22;46318;52.716;6.444;2024-01-10T06:19:36;-5.40;87.40
60473;DHT22;46318;52.716;6.444;2024-01-10T06:22:38;-5.40;87.60
60473;DHT22;46318;52.716;6.444;2024-01-10T06:25:28;-5.40;87.60
60473;DHT22;46318;52.716;6.444;2024-01-10T06:28:50;-5.40;87.50
60473;DHT22;46318;52.716;6.444;2024-01-10T06:31:52;-5.50;87.50
60473;DHT22;46318;52.716;6.444;2024-01-10T06:41:21;-5.50;87.20
60473;DHT22;46318;52.716;6.444;2024-01-10T06:47:22;-5.50;87.10
60473;DHT22;46318;52.716;6.444;2024-01-10T06:50:07;-5.50;87.00
60473;DHT22;46318;52.716;6.444;2024-01-10T07:00:25;-5.50;87.20
60473;DHT22;46318;52.716;6.444;2024-01-10T07:07:00;-5.50;86.60
60473;DHT22;46318;52.716;6.444;2024-01-10T07:10:12;-5.50;86.10
60473;DHT22;46318;52.716;6.444;2024-01-10T07:23:22;-5.50;85.60
60473;DHT22;46318;52.716;6.444;2024-01-10T07:32:46;-5.50;85.40
60473;DHT22;46318;52.716;6.444;2024-01-10T07:47:34;-5.50;85.90
60473;DHT22;46318;52.716;6.444;2024-01-10T07:58:21;-5.50;86.20
60473;DHT22;46318;52.716;6.444;2024-01-10T08:00:46;-5.50;86.10
60473;DHT22;46318;52.716;6.444;2024-01-10T08:03:12;-5.60;86.10
60473;DHT22;46318;52.716;6.444;2024-01-10T08:05:38;-5.60;86.20
60473;DHT22;46318;52.716;6.444;2024-01-10T08:08:04;-5.50;86.30
60473;DHT22;46318;52.716;6.444;2024-01-10T08:10:30;-5.50;86.20
60473;DHT22;46318;52.716;6.444;2024-01-10T08:12:56;-5.50;86.20
60473;DHT22;46318;52.716;6.444;2024-01-10T08:15:22;-5.50;86.30
60473;DHT22;46318;52.716;6.444;2024-01-10T08:17:48;-5.50;86.10
60473;DHT22;46318;52.716;6.444;2024-01-10T08:20:14;-5.50;85.90
60473;DHT22;46318;52.716;6.444;2024-01-10T08:22:45;-5.50;85.90
60473;DHT22;46318;52.716;6.444;2024-01-10T08:25:11;-5.50;85.80
60473;DHT22;46318;52.716;6.444;2024-01-10T08:27:38;-5.50;85.60
60473;DHT22;46318;52.716;6.444;2024-01-10T08:30:04;-5.50;85.60
60473;DHT22;46318;52.716;6.444;2024-01-10T08:32:31;-5.50;85.60
60473;DHT22;46318;52.716;6.444;2024-01-10T08:34:56;-5.50;85.50
60473;DHT22;46318;52.716;6.444;2024-01-10T08:37:22;-5.40;85.30
60473;DHT22;46318;52.716;6.444;2024-01-10T08:39:48;-5.40;85.20
60473;DHT22;46318;52.716;6.444;2024-01-10T08:42:15;-5.40;85.00
60473;DHT22;46318;52.716;6.444;2024-01-10T08:44:41;-5.40;85.10
60473;DHT22;46318;52.716;6.444;2024-01-10T08:47:07;-5.40;85.00
60473;DHT22;46318;52.716;6.444;2024-01-10T08:49:33;-5.40;84.90
60473;DHT22;46318;52.716;6.444;2024-01-10T08:51:59;-5.30;84.80
60473;DHT22;46318;52.716;6.444;2024-01-10T08:54:24;-5.30;84.80
60473;DHT22;46318;52.716;6.444;2024-01-10T08:56:50;-5.30;84.90
60473;DHT22;46318;52.716;6.444;2024-01-10T08:59:16;-5.30;84.70
60473;DHT22;46318;52.716;6.444;2024-01-10T09:01:42;-5.30;84.60
60473;DHT22;46318;52.716;6.444;2024-01-10T09:04:08;-5.30;84.40
60473;DHT22;46318;52.716;6.444;2024-01-10T09:06:33;-5.20;84.20
60473;DHT22;46318;52.716;6.444;2024-01-10T09:09:01;-5.20;84.10
60473;DHT22;46318;52.716;6.444;2024-01-10T09:11:28;-5.20;84.00
60473;DHT22;46318;52.716;6.444;2024-01-10T09:13:54;-5.10;83.50
60473;DHT22;46318;52.716;6.444;2024-01-10T09:16:19;-5.10;83.30
60473;DHT22;46318;52.716;6.444;2024-01-10T09:18:45;-5.00;83.50
60473;DHT22;46318;52.716;6.444;2024-01-10T09:21:11;-4.90;82.50
60473;DHT22;46318;52.716;6.444;2024-01-10T09:23:37;-4.80;82.40
60473;DHT22;46318;52.716;6.444;2024-01-10T09:26:03;-4.80;81.90
60473;DHT22;46318;52.716;6.444;2024-01-10T09:28:29;-4.70;81.50
60473;DHT22;46318;52.716;6.444;2024-01-10T09:30:55;-4.60;81.20
60473;DHT22;46318;52.716;6.444;2024-01-10T09:33:21;-4.60;80.40
60473;DHT22;46318;52.716;6.444;2024-01-10T09:35:48;-4.50;80.50
60473;DHT22;46318;52.716;6.444;2024-01-10T09:38:14;-4.40;80.20
60473;DHT22;46318;52.716;6.444;2024-01-10T09:40:40;-4.30;79.70
60473;DHT22;46318;52.716;6.444;2024-01-10T09:43:06;-4.20;79.80
60473;DHT22;46318;52.716;6.444;2024-01-10T09:45:35;-4.20;79.20
60473;DHT22;46318;52.716;6.444;2024-01-10T09:48:02;-4.10;78.30
60473;DHT22;46318;52.716;6.444;2024-01-10T09:50:28;-4.00;78.20
60473;DHT22;46318;52.716;6.444;2024-01-10T09:53:01;-3.90;78.20
60473;DHT22;46318;52.716;6.444;2024-01-10T09:55:34;-3.80;78.00
60473;DHT22;46318;52.716;6.444;2024-01-10T09:58:04;-3.70;77.20
60473;DHT22;46318;52.716;6.444;2024-01-10T10:00:32;-3.60;76.70
60473;DHT22;46318;52.716;6.444;2024-01-10T10:02:59;-3.60;76.00
60473;DHT22;46318;52.716;6.444;2024-01-10T10:05:27;-3.60;75.80
60473;DHT22;46318;52.716;6.444;2024-01-10T10:07:53;-3.40;76.20
60473;DHT22;46318;52.716;6.444;2024-01-10T10:10:19;-3.40;75.60
60473;DHT22;46318;52.716;6.444;2024-01-10T10:12:53;-3.20;75.50
60473;DHT22;46318;52.716;6.444;2024-01-10T10:15:21;-3.20;74.60
60473;DHT22;46318;52.716;6.444;2024-01-10T10:17:49;-3.20;74.40
60473;DHT22;46318;52.716;6.444;2024-01-10T10:20:28;-3.00;74.30
60473;DHT22;46318;52.716;6.444;2024-01-10T10:23:05;-2.90;74.00
60473;DHT22;46318;52.716;6.444;2024-01-10T10:25:36;-2.80;73.70
60473;DHT22;46318;52.716;6.444;2024-01-10T10:28:04;-2.80;73.00
60473;DHT22;46318;52.716;6.444;2024-01-10T10:30:34;-2.70;73.10
60473;DHT22;46318;52.716;6.444;2024-01-10T10:35:38;-2.50;72.10
60473;DHT22;46318;52.716;6.444;2024-01-10T10:38:04;-2.40;71.80
60473;DHT22;46318;52.716;6.444;2024-01-10T10:40:35;-2.40;70.70
60473;DHT22;46318;52.716;6.444;2024-01-10T10:43:04;-2.30;70.50
60473;DHT22;46318;52.716;6.444;2024-01-10T10:45:31;-2.30;70.00
60473;DHT22;46318;52.716;6.444;2024-01-10T10:48:01;-2.20;69.20
60473;DHT22;46318;52.716;6.444;2024-01-10T10:50:34;-2.10;69.50
60473;DHT22;46318;52.716;6.444;2024-01-10T10:53:04;-2.00;68.90
60473;DHT22;46318;52.716;6.444;2024-01-10T10:55:31;-2.00;68.40
60473;DHT22;46318;52.716;6.444;2024-01-10T10:58:01;-1.90;68.80
60473;DHT22;46318;52.716;6.444;2024-01-10T11:00:38;-1.80;69.10
60473;DHT22;46318;52.716;6.444;2024-01-10T11:03:09;-1.70;68.00
60473;DHT22;46318;52.716;6.444;2024-01-10T11:05:41;-1.70;67.80
60473;DHT22;46318;52.716;6.444;2024-01-10T11:08:11;-1.60;67.60
60473;DHT22;46318;52.716;6.444;2024-01-10T11:10:54;-1.60;67.10
60473;DHT22;46318;52.716;6.444;2024-01-10T11:20:10;-1.40;66.00
60473;DHT22;46318;52.716;6.444;2024-01-10T11:25:40;-1.30;65.30
60473;DHT22;46318;52.716;6.444;2024-01-10T11:28:17;-1.20;65.60
60473;DHT22;46318;52.716;6.444;2024-01-10T11:30:51;-1.20;65.90
60473;DHT22;46318;52.716;6.444;2024-01-10T11:33:51;-1.10;64.80
60473;DHT22;46318;52.716;6.444;2024-01-10T11:36:18;-1.00;64.60
60473;DHT22;46318;52.716;6.444;2024-01-10T11:38:49;-0.90;63.50
60473;DHT22;46318;52.716;6.444;2024-01-10T11:41:36;-0.80;62.60
60473;DHT22;46318;52.716;6.444;2024-01-10T11:46:56;-0.70;62.00
60473;DHT22;46318;52.716;6.444;2024-01-10T11:49:24;-0.60;62.20
60473;DHT22;46318;52.716;6.444;2024-01-10T11:51:56;-0.60;62.40
60473;DHT22;46318;52.716;6.444;2024-01-10T11:54:38;-0.70;62.80
60473;DHT22;46318;52.716;6.444;2024-01-10T11:59:43;-0.90;63.20
60473;DHT22;46318;52.716;6.444;2024-01-10T12:02:14;-1.00;63.40
60473;DHT22;46318;52.716;6.444;2024-01-10T12:04:40;-1.00;63.20
60473;DHT22;46318;52.716;6.444;2024-01-10T12:07:07;-1.10;64.10
60473;DHT22;46318;52.716;6.444;2024-01-10T12:09:34;-1.20;63.00
60473;DHT22;46318;52.716;6.444;2024-01-10T12:12:02;-1.20;62.80
60473;DHT22;46318;52.716;6.444;2024-01-10T12:14:28;-1.20;62.70
60473;DHT22;46318;52.716;6.444;2024-01-10T12:16:54;-1.30;61.80
60473;DHT22;46318;52.716;6.444;2024-01-10T12:19:20;-1.30;62.30
60473;DHT22;46318;52.716;6.444;2024-01-10T12:21:46;-1.40;62.80
60473;DHT22;46318;52.716;6.444;2024-01-10T12:24:13;-1.40;63.10
60473;DHT22;46318;52.716;6.444;2024-01-10T12:26:49;-1.40;62.40
60473;DHT22;46318;52.716;6.444;2024-01-10T12:29:18;-1.40;62.20
60473;DHT22;46318;52.716;6.444;2024-01-10T12:31:48;-1.40;62.00
60473;DHT22;46318;52.716;6.444;2024-01-10T12:34:14;-1.30;61.70
60473;DHT22;46318;52.716;6.444;2024-01-10T12:36:41;-1.30;61.40
60473;DHT22;46318;52.716;6.444;2024-01-10T12:39:08;-1.30;61.00
60473;DHT22;46318;52.716;6.444;2024-01-10T12:41:34;-1.30;60.70
60473;DHT22;46318;52.716;6.444;2024-01-10T12:44:01;-1.30;60.20
60473;DHT22;46318;52.716;6.444;2024-01-10T12:46:31;-1.30;60.40
60473;DHT22;46318;52.716;6.444;2024-01-10T12:49:07;-1.40;61.20
60473;DHT22;46318;52.716;6.444;2024-01-10T12:51:34;-1.30;61.40
60473;DHT22;46318;52.716;6.444;2024-01-10T12:54:02;-1.30;61.50
60473;DHT22;46318;52.716;6.444;2024-01-10T12:56:30;-1.30;61.00
60473;DHT22;46318;52.716;6.444;2024-01-10T12:58:56;-1.30;61.30
60473;DHT22;46318;52.716;6.444;2024-01-10T13:01:23;-1.30;61.50
60473;DHT22;46318;52.716;6.444;2024-01-10T13:03:49;-1.30;61.60
60473;DHT22;46318;52.716;6.444;2024-01-10T13:06:16;-1.30;60.90
60473;DHT22;46318;52.716;6.444;2024-01-10T13:08:44;-1.30;60.60
60473;DHT22;46318;52.716;6.444;2024-01-10T13:11:11;-1.20;61.00
60473;DHT22;46318;52.716;6.444;2024-01-10T13:13:39;-1.30;61.10
60473;DHT22;46318;52.716;6.444;2024-01-10T13:16:06;-1.30;62.20
60473;DHT22;46318;52.716;6.444;2024-01-10T13:18:32;-1.30;62.40
60473;DHT22;46318;52.716;6.444;2024-01-10T13:20:57;-1.30;61.60
60473;DHT22;46318;52.716;6.444;2024-01-10T13:23:24;-1.30;61.60
60473;DHT22;46318;52.716;6.444;2024-01-10T13:25:52;-1.30;61.60
60473;DHT22;46318;52.716;6.444;2024-01-10T13:28:19;-1.30;62.10
60473;DHT22;46318;52.716;6.444;2024-01-10T13:30:44;-1.30;62.50
60473;DHT22;46318;52.716;6.444;2024-01-10T13:33:10;-1.30;62.70
60473;DHT22;46318;52.716;6.444;2024-01-10T13:35:37;-1.20;61.80
60473;DHT22;46318;52.716;6.444;2024-01-10T13:38:04;-1.30;62.10
60473;DHT22;46318;52.716;6.444;2024-01-10T13:40:31;-1.20;62.60
60473;DHT22;46318;52.716;6.444;2024-01-10T13:42:59;-1.20;62.60
60473;DHT22;46318;52.716;6.444;2024-01-10T13:45:28;-1.20;62.40
60473;DHT22;46318;52.716;6.444;2024-01-10T13:47:54;-1.20;62.50
60473;DHT22;46318;52.716;6.444;2024-01-10T13:50:20;-1.20;62.50
60473;DHT22;46318;52.716;6.444;2024-01-10T13:52:46;-1.30;62.90
60473;DHT22;46318;52.716;6.444;2024-01-10T13:55:12;-1.20;63.50
60473;DHT22;46318;52.716;6.444;2024-01-10T13:57:37;-1.30;63.40
60473;DHT22;46318;52.716;6.444;2024-01-10T14:00:06;-1.30;63.00
60473;DHT22;46318;52.716;6.444;2024-01-10T14:02:40;-1.20;63.00
60473;DHT22;46318;52.716;6.444;2024-01-10T14:05:07;-1.20;63.00
60473;DHT22;46318;52.716;6.444;2024-01-10T14:07:34;-1.30;63.20
60473;DHT22;46318;52.716;6.444;2024-01-10T14:10:00;-1.30;63.10
60473;DHT22;46318;52.716;6.444;2024-01-10T14:12:27;-1.20;62.50
60473;DHT22;46318;52.716;6.444;2024-01-10T14:14:54;-1.30;63.00
60473;DHT22;46318;52.716;6.444;2024-01-10T14:17:21;-1.30;62.40
60473;DHT22;46318;52.716;6.444;2024-01-10T14:19:47;-1.20;62.20
60473;DHT22;46318;52.716;6.444;2024-01-10T14:22:15;-1.20;62.00
60473;DHT22;46318;52.716;6.444;2024-01-10T14:24:43;-1.20;61.90
60473;DHT22;46318;52.716;6.444;2024-01-10T14:27:09;-1.20;62.10
60473;DHT22;46318;52.716;6.444;2024-01-10T14:29:35;-1.20;62.40
60473;DHT22;46318;52.716;6.444;2024-01-10T14:32:01;-1.20;62.60
60473;DHT22;46318;52.716;6.444;2024-01-10T14:34:27;-1.30;62.90
60473;DHT22;46318;52.716;6.444;2024-01-10T14:36:53;-1.20;62.10
60473;DHT22;46318;52.716;6.444;2024-01-10T14:39:18;-1.20;62.20
60473;DHT22;46318;52.716;6.444;2024-01-10T14:41:44;-1.20;62.00
60473;DHT22;46318;52.716;6.444;2024-01-10T14:44:10;-1.20;61.90
60473;DHT22;46318;52.716;6.444;2024-01-10T14:46:36;-1.20;62.10
60473;DHT22;46318;52.716;6.444;2024-01-10T14:49:02;-1.20;62.00
60473;DHT22;46318;52.716;6.444;2024-01-10T14:51:27;-1.30;62.20
60473;DHT22;46318;52.716;6.444;2024-01-10T14:53:53;-1.30;62.30
60473;DHT22;46318;52.716;6.444;2024-01-10T14:56:19;-1.30;62.60
60473;DHT22;46318;52.716;6.444;2024-01-10T14:58:45;-1.30;62.90
60473;DHT22;46318;52.716;6.444;2024-01-10T15:01:10;-1.30;63.00
60473;DHT22;46318;52.716;6.444;2024-01-10T15:03:36;-1.30;63.20
60473;DHT22;46318;52.716;6.444;2024-01-10T15:06:04;-1.30;63.60
60473;DHT22;46318;52.716;6.444;2024-01-10T15:08:31;-1.30;63.30
60473;DHT22;46318;52.716;6.444;2024-01-10T15:10:57;-1.30;63.30
60473;DHT22;46318;52.716;6.444;2024-01-10T15:13:22;-1.40;63.70
60473;DHT22;46318;52.716;6.444;2024-01-10T15:15:48;-1.40;63.80
60473;DHT22;46318;52.716;6.444;2024-01-10T15:18:14;-1.40;64.00
60473;DHT22;46318;52.716;6.444;2024-01-10T15:20:40;-1.40;63.90
60473;DHT22;46318;52.716;6.444;2024-01-10T15:23:06;-1.40;63.70
60473;DHT22;46318;52.716;6.444;2024-01-10T15:25:32;-1.40;63.70
60473;DHT22;46318;52.716;6.444;2024-01-10T15:27:58;-1.40;64.00
60473;DHT22;46318;52.716;6.444;2024-01-10T15:30:25;-1.40;64.50
60473;DHT22;46318;52.716;6.444;2024-01-10T15:32:52;-1.50;64.50
60473;DHT22;46318;52.716;6.444;2024-01-10T15:35:18;-1.50;64.10
60473;DHT22;46318;52.716;6.444;2024-01-10T15:37:44;-1.50;64.50
60473;DHT22;46318;52.716;6.444;2024-01-10T15:40:10;-1.50;64.60
60473;DHT22;46318;52.716;6.444;2024-01-10T15:42:40;-1.50;64.80
60473;DHT22;46318;52.716;6.444;2024-01-10T15:45:16;-1.50;65.40
60473;DHT22;46318;52.716;6.444;2024-01-10T15:47:42;-1.60;65.50
60473;DHT22;46318;52.716;6.444;2024-01-10T15:50:08;-1.60;65.10
60473;DHT22;46318;52.716;6.444;2024-01-10T15:52:35;-1.60;65.50
60473;DHT22;46318;52.716;6.444;2024-01-10T15:55:03;-1.60;65.80
60473;DHT22;46318;52.716;6.444;2024-01-10T15:57:29;-1.60;66.40
60473;DHT22;46318;52.716;6.444;2024-01-10T15:59:55;-1.70;66.40
60473;DHT22;46318;52.716;6.444;2024-01-10T16:02:22;-1.70;66.40
60473;DHT22;46318;52.716;6.444;2024-01-10T16:04:48;-1.70;66.50
60473;DHT22;46318;52.716;6.444;2024-01-10T16:07:14;-1.70;66.80
60473;DHT22;46318;52.716;6.444;2024-01-10T16:09:39;-1.70;66.80
60473;DHT22;46318;52.716;6.444;2024-01-10T16:12:05;-1.70;66.70
60473;DHT22;46318;52.716;6.444;2024-01-10T16:14:31;-1.80;66.80
60473;DHT22;46318;52.716;6.444;2024-01-10T16:16:57;-1.80;67.30
60473;DHT22;46318;52.716;6.444;2024-01-10T16:19:23;-1.80;67.60
60473;DHT22;46318;52.716;6.444;2024-01-10T16:21:49;-1.80;67.30
60473;DHT22;46318;52.716;6.444;2024-01-10T16:24:15;-1.80;67.30
60473;DHT22;46318;52.716;6.444;2024-01-10T16:26:42;-1.90;67.60
60473;DHT22;46318;52.716;6.444;2024-01-10T16:29:08;-1.90;67.80
60473;DHT22;46318;52.716;6.444;2024-01-10T16:31:34;-1.90;68.40
60473;DHT22;46318;52.716;6.444;2024-01-10T16:34:00;-1.90;68.60
60473;DHT22;46318;52.716;6.444;2024-01-10T16:36:26;-2.00;68.50
60473;DHT22;46318;52.716;6.444;2024-01-10T16:38:52;-2.00;69.00
60473;DHT22;46318;52.716;6.444;2024-01-10T16:41:20;-2.00;69.30
60473;DHT22;46318;52.716;6.444;2024-01-10T16:43:46;-2.00;69.20
60473;DHT22;46318;52.716;6.444;2024-01-10T16:46:12;-2.00;70.10
60473;DHT22;46318;52.716;6.444;2024-01-10T16:48:38;-2.10;70.30
60473;DHT22;46318;52.716;6.444;2024-01-10T16:51:04;-2.10;70.20
60473;DHT22;46318;52.716;6.444;2024-01-10T16:53:30;-2.10;70.40
60473;DHT22;46318;52.716;6.444;2024-01-10T16:55:55;-2.10;70.90
60473;DHT22;46318;52.716;6.444;2024-01-10T16:58:22;-2.20;71.40
60473;DHT22;46318;52.716;6.444;2024-01-10T17:00:48;-2.20;72.00
60473;DHT22;46318;52.716;6.444;2024-01-10T17:03:14;-2.20;72.40
60473;DHT22;46318;52.716;6.444;2024-01-10T17:05:40;-2.30;72.80
60473;DHT22;46318;52.716;6.444;2024-01-10T17:08:06;-2.30;73.40
60473;DHT22;46318;52.716;6.444;2024-01-10T17:10:32;-2.30;73.80
60473;DHT22;46318;52.716;6.444;2024-01-10T17:12:58;-2.30;74.20
60473;DHT22;46318;52.716;6.444;2024-01-10T17:15:24;-2.30;74.50
60473;DHT22;46318;52.716;6.444;2024-01-10T17:17:51;-2.30;75.10
60473;DHT22;46318;52.716;6.444;2024-01-10T17:20:16;-2.40;75.10
60473;DHT22;46318;52.716;6.444;2024-01-10T17:22:42;-2.40;75.50
60473;DHT22;46318;52.716;6.444;2024-01-10T17:25:20;-2.40;75.70
60473;DHT22;46318;52.716;6.444;2024-01-10T17:27:49;-2.40;76.20
60473;DHT22;46318;52.716;6.444;2024-01-10T17:30:15;-2.50;76.60
60473;DHT22;46318;52.716;6.444;2024-01-10T17:32:41;-2.50;76.60
60473;DHT22;46318;52.716;6.444;2024-01-10T17:35:07;-2.50;76.80
60473;DHT22;46318;52.716;6.444;2024-01-10T17:37:33;-2.50;77.20
60473;DHT22;46318;52.716;6.444;2024-01-10T17:39:59;-2.50;77.30
60473;DHT22;46318;52.716;6.444;2024-01-10T17:42:24;-2.50;77.40
60473;DHT22;46318;52.716;6.444;2024-01-10T17:44:50;-2.60;77.50
60473;DHT22;46318;52.716;6.444;2024-01-10T17:47:16;-2.60;77.60
60473;DHT22;46318;52.716;6.444;2024-01-10T17:49:42;-2.60;78.00
60473;DHT22;46318;52.716;6.444;2024-01-10T17:52:07;-2.60;78.10
60473;DHT22;46318;52.716;6.444;2024-01-10T17:54:33;-2.70;78.40
60473;DHT22;46318;52.716;6.444;2024-01-10T17:56:59;-2.70;78.50